createdAt,value
2016-09-29T00:00:08.024Z,70.14
2016-09-29T00:01:08.047Z,69.95
2016-09-29T00:02:08.069Z,70.04
2016-09-29T00:03:08.084Z,70.23
2016-09-29T00:04:08.106Z,70.14
2016-09-29T00:05:08.125Z,69.75
2016-09-29T00:06:08.147Z,69.95
2016-09-29T00:07:08.181Z,69.95
2016-09-29T00:08:08.193Z,69.95
2016-09-29T00:09:08.233Z,69.56
2016-09-29T00:10:08.227Z,69.85
2016-09-29T00:11:08.267Z,69.95
2016-09-29T00:12:08.277Z,69.66
2016-09-29T00:13:08.325Z,69.75
2016-09-29T00:14:08.318Z,70.04
2016-09-29T00:15:08.352Z,69.85
2016-09-29T00:16:08.388Z,70.23
2016-09-29T00:17:08.415Z,69.95
2016-09-29T00:18:08.414Z,69.46
2016-09-29T00:19:08.428Z,69.66
2016-09-29T00:20:08.456Z,69.18
2016-09-29T00:21:08.478Z,69.85
2016-09-29T00:22:08.501Z,69.46
2016-09-29T00:23:08.530Z,69.46
2016-09-29T00:24:08.542Z,69.56
2016-09-29T00:25:08.556Z,69.66
2016-09-29T00:26:08.576Z,69.46
2016-09-29T00:27:08.605Z,69.75
2016-09-29T00:28:08.627Z,69.18
2016-09-29T00:29:08.641Z,69.27
2016-09-29T00:30:08.668Z,69.27
2016-09-29T00:31:08.696Z,69.27
2016-09-29T00:32:08.715Z,69.56
2016-09-29T00:33:08.737Z,69.66
2016-09-29T00:34:08.756Z,69.56
2016-09-29T00:35:08.786Z,69.66
2016-09-29T00:36:08.798Z,69.46
2016-09-29T00:37:08.810Z,69.75
2016-09-29T00:38:08.831Z,69.56
2016-09-29T00:39:08.860Z,69.95
2016-09-29T00:40:08.882Z,69.46
2016-09-29T00:41:08.904Z,69.46
2016-09-29T00:42:08.915Z,69.27
2016-09-29T00:43:08.945Z,69.56
2016-09-29T00:44:08.968Z,69.56
2016-09-29T00:45:08.994Z,69.46
2016-09-29T00:46:09.011Z,69.46
2016-09-29T00:47:09.019Z,69.46
2016-09-29T00:48:09.053Z,69.46
2016-09-29T00:49:09.073Z,69.18
2016-09-29T00:50:09.085Z,69.56
2016-09-29T00:51:09.124Z,69.85
2016-09-29T00:52:09.142Z,69.18
2016-09-29T00:53:09.163Z,68.79
2016-09-29T00:54:09.186Z,68.79
2016-09-29T00:55:09.196Z,69.08
2016-09-29T00:56:09.219Z,68.79
2016-09-29T00:57:09.252Z,69.27
2016-09-29T00:58:09.264Z,69.08
2016-09-29T00:59:09.294Z,69.08
2016-09-29T01:00:09.307Z,68.79
2016-09-29T01:01:09.327Z,68.89
2016-09-29T01:02:09.354Z,68.98
2016-09-29T01:03:09.380Z,68.98
2016-09-29T01:04:09.397Z,68.89
2016-09-29T01:05:09.416Z,68.98
2016-09-29T01:06:09.557Z,68.79
2016-09-29T01:07:09.458Z,68.79
2016-09-29T01:08:09.473Z,68.98
2016-09-29T01:09:09.509Z,69.27
2016-09-29T01:10:09.524Z,68.98
2016-09-29T01:11:09.548Z,68.7
2016-09-29T01:12:09.566Z,68.89
2016-09-29T01:13:09.586Z,68.98
2016-09-29T01:14:09.609Z,69.08
2016-09-29T01:15:09.652Z,68.89
2016-09-29T01:16:09.654Z,68.98
2016-09-29T01:17:09.991Z,68.79
2016-09-29T01:18:09.689Z,68.41
2016-09-29T01:19:09.710Z,68.6
2016-09-29T01:20:09.731Z,68.51
2016-09-29T01:21:09.761Z,68.21
2016-09-29T01:22:09.784Z,68.6
2016-09-29T01:23:10.117Z,68.6
2016-09-29T01:24:09.817Z,68.51
2016-09-29T01:25:09.850Z,68.31
2016-09-29T01:26:09.865Z,68.41
2016-09-29T01:27:09.892Z,68.41
2016-09-29T01:28:09.892Z,68.02
2016-09-29T01:29:09.935Z,68.21
2016-09-29T01:30:09.940Z,68.41
2016-09-29T01:31:09.961Z,67.93
2016-09-29T01:32:09.985Z,68.21
2016-09-29T01:33:10.011Z,67.83
2016-09-29T01:34:10.037Z,67.93
2016-09-29T01:35:10.048Z,68.21
2016-09-29T01:36:10.070Z,67.93
2016-09-29T01:37:10.093Z,67.74
2016-09-29T01:38:10.117Z,67.83
2016-09-29T01:39:10.153Z,67.93
2016-09-29T01:40:10.167Z,67.64
2016-09-29T01:41:10.182Z,67.74
2016-09-29T01:42:10.199Z,67.35
2016-09-29T01:43:10.232Z,67.25
2016-09-29T01:44:10.241Z,67.25
2016-09-29T01:45:10.282Z,67.16
2016-09-29T01:46:10.294Z,67.16
2016-09-29T01:47:10.328Z,67.83
2016-09-29T01:48:10.323Z,67.93
2016-09-29T01:49:10.363Z,67.54
2016-09-29T01:50:10.368Z,67.83
2016-09-29T01:51:10.391Z,67.83
2016-09-29T01:52:10.425Z,67.64
2016-09-29T01:53:10.427Z,67.64
2016-09-29T01:54:10.473Z,67.93
2016-09-29T01:55:10.482Z,67.64
2016-09-29T01:56:10.502Z,67.93
2016-09-29T01:57:10.517Z,67.83
2016-09-29T01:58:10.541Z,67.83
2016-09-29T01:59:10.568Z,67.54
2016-09-29T02:00:10.588Z,67.64
2016-09-29T02:01:10.603Z,67.54
2016-09-29T02:02:10.623Z,67.45
2016-09-29T02:03:10.657Z,67.74
2016-09-29T02:04:10.668Z,67.54
2016-09-29T02:05:10.709Z,67.83
2016-09-29T02:06:10.718Z,67.64
2016-09-29T02:07:10.733Z,67.64
2016-09-29T02:08:10.762Z,67.07
2016-09-29T02:09:10.783Z,67.35
2016-09-29T02:10:10.796Z,67.16
2016-09-29T02:11:10.824Z,67.16
2016-09-29T02:12:10.849Z,67.25
2016-09-29T02:13:10.869Z,67.25
2016-09-29T02:14:10.893Z,67.16
2016-09-29T02:15:10.908Z,67.93
2016-09-29T02:16:10.937Z,67.07
2016-09-29T02:17:10.945Z,67.07
2016-09-29T02:18:10.973Z,67.25
2016-09-29T02:19:10.992Z,67.54
2016-09-29T02:20:11.019Z,67.54
2016-09-29T02:21:11.039Z,67.54
2016-09-29T02:22:11.053Z,67.74
2016-09-29T02:23:11.415Z,67.16
2016-09-29T02:24:11.103Z,67.25
2016-09-29T02:25:11.128Z,67.25
2016-09-29T02:26:11.144Z,67.16
2016-09-29T02:27:11.175Z,67.35
2016-09-29T02:28:11.186Z,67.45
2016-09-29T02:29:11.216Z,67.25
2016-09-29T02:30:11.224Z,67.16
2016-09-29T02:31:11.265Z,67.25
2016-09-29T02:32:11.267Z,67.16
2016-09-29T02:33:11.319Z,67.16
2016-09-29T02:34:11.308Z,67.07
2016-09-29T02:35:11.348Z,67.35
2016-09-29T02:36:11.358Z,67.07
2016-09-29T02:37:11.402Z,66.97
2016-09-29T02:38:11.407Z,67.25
2016-09-29T02:39:11.427Z,66.77
2016-09-29T02:40:11.444Z,67.07
2016-09-29T02:41:11.477Z,67.07
2016-09-29T02:42:11.492Z,67.16
2016-09-29T02:43:11.514Z,67.16
2016-09-29T02:44:11.524Z,67.35
2016-09-29T02:45:11.560Z,67.35
2016-09-29T02:46:11.566Z,67.35
2016-09-29T02:47:11.605Z,67.35
2016-09-29T02:48:11.610Z,67.45
2016-09-29T02:49:11.647Z,66.68
2016-09-29T02:50:11.667Z,66.97
2016-09-29T02:51:11.683Z,66.87
2016-09-29T02:52:11.707Z,66.58
2016-09-29T02:53:11.728Z,66.58
2016-09-29T02:54:11.750Z,66.68
2016-09-29T02:55:11.784Z,66.2
2016-09-29T02:56:11.781Z,66.58
2016-09-29T02:57:11.824Z,66.49
2016-09-29T02:58:11.835Z,66.2
2016-09-29T02:59:11.851Z,66.97
2016-09-29T03:00:11.876Z,67.16
2016-09-29T03:01:11.897Z,67.16
2016-09-29T03:02:11.919Z,66.68
2016-09-29T03:03:11.926Z,66.49
2016-09-29T03:04:11.961Z,66.49
2016-09-29T03:05:12.319Z,66.87
2016-09-29T03:06:12.005Z,66.77
2016-09-29T03:07:12.017Z,66.58
2016-09-29T03:08:12.039Z,67.16
2016-09-29T03:09:12.067Z,67.07
2016-09-29T03:10:12.075Z,66.68
2016-09-29T03:11:12.110Z,67.35
2016-09-29T03:12:12.137Z,67.16
2016-09-29T03:13:12.154Z,68.12
2016-09-29T03:14:12.176Z,67.93
2016-09-29T03:15:12.200Z,67.93
2016-09-29T03:16:12.223Z,68.21
2016-09-29T03:17:12.232Z,68.89
2016-09-29T03:18:12.253Z,68.6
2016-09-29T03:19:12.273Z,68.79
2016-09-29T03:20:12.302Z,69.08
2016-09-29T03:21:12.332Z,68.76
2016-09-29T03:22:12.340Z,69.05
2016-09-29T03:23:12.361Z,69.53
2016-09-29T03:24:12.382Z,69.24
2016-09-29T03:25:12.416Z,69.72
2016-09-29T03:26:12.428Z,70.1
2016-09-29T03:27:12.450Z,70.2
2016-09-29T03:28:12.467Z,70.39
2016-09-29T03:29:12.490Z,70.58
2016-09-29T03:30:12.512Z,70.49
2016-09-29T03:31:12.543Z,70.68
2016-09-29T03:32:12.559Z,70.58
2016-09-29T03:33:12.576Z,70.58
2016-09-29T03:34:12.602Z,70.58
2016-09-29T03:35:12.620Z,70.58
2016-09-29T03:36:12.652Z,70.87
2016-09-29T03:37:12.669Z,71.06
2016-09-29T03:38:12.690Z,71.16
2016-09-29T03:39:12.713Z,71.06
2016-09-29T03:40:12.734Z,70.84
2016-09-29T03:41:12.748Z,70.78
2016-09-29T03:42:12.766Z,71.51
2016-09-29T03:43:12.785Z,71.7
2016-09-29T03:44:12.813Z,71.45
2016-09-29T03:45:12.836Z,71.31
2016-09-29T03:46:12.857Z,71.51
2016-09-29T03:47:12.889Z,71.7
2016-09-29T03:48:12.904Z,71.61
2016-09-29T03:49:12.927Z,71.61
2016-09-29T03:50:12.939Z,72.28
2016-09-29T03:51:12.965Z,72.28
2016-09-29T03:52:12.991Z,72.08
2016-09-29T03:53:13.006Z,72.47
2016-09-29T03:54:13.029Z,72.37
2016-09-29T03:55:13.052Z,72.66
2016-09-29T03:56:13.070Z,72.75
2016-09-29T03:57:13.094Z,72.66
2016-09-29T03:58:13.110Z,72.37
2016-09-29T03:59:13.466Z,72.85
2016-09-29T04:01:13.193Z,72.56
2016-09-29T04:02:13.214Z,73.04
2016-09-29T04:03:13.234Z,72.95
2016-09-29T04:04:13.251Z,73.04
2016-09-29T04:05:13.272Z,73.43
2016-09-29T04:06:13.283Z,73.52
2016-09-29T04:07:13.324Z,73.72
2016-09-29T04:08:13.341Z,73.97
2016-09-29T04:09:13.356Z,73.81
2016-09-29T04:10:13.367Z,73.81
2016-09-29T04:11:13.403Z,73.77
2016-09-29T04:12:13.407Z,73.49
2016-09-29T04:13:13.443Z,73.58
2016-09-29T04:14:13.460Z,73.49
2016-09-29T04:15:13.477Z,73.68
2016-09-29T04:16:13.494Z,73.49
2016-09-29T04:17:13.523Z,73.87
2016-09-29T04:18:13.549Z,73.87
2016-09-29T04:19:13.575Z,74.26
2016-09-29T04:20:13.587Z,74.35
2016-09-29T04:21:13.612Z,73.77
2016-09-29T04:22:13.629Z,74.06
2016-09-29T04:23:13.659Z,73.68
2016-09-29T04:24:13.671Z,74.73
2016-09-29T04:25:13.694Z,74.54
2016-09-29T04:26:13.706Z,73.87
2016-09-29T04:27:13.728Z,74.35
2016-09-29T04:28:13.748Z,74.26
2016-09-29T04:29:14.101Z,74.54
2016-09-29T04:30:13.787Z,74.16
2016-09-29T04:31:13.814Z,74.54
2016-09-29T04:32:13.834Z,74.26
2016-09-29T04:33:13.865Z,74.16
2016-09-29T04:34:13.876Z,74.06
2016-09-29T04:35:13.909Z,74.06
2016-09-29T04:36:13.921Z,74.64
2016-09-29T04:37:13.947Z,74.64
2016-09-29T04:38:13.969Z,74.16
2016-09-29T04:39:13.985Z,74.35
2016-09-29T04:40:14.007Z,74.35
2016-09-29T04:41:14.023Z,74.26
2016-09-29T04:42:14.047Z,74.26
2016-09-29T04:43:14.075Z,74.35
2016-09-29T04:44:14.087Z,74.44
2016-09-29T04:45:14.117Z,74.35
2016-09-29T04:46:14.135Z,74.35
2016-09-29T04:47:14.151Z,74.44
2016-09-29T04:48:14.177Z,73.87
2016-09-29T04:49:14.198Z,74.16
2016-09-29T04:50:14.212Z,74.26
2016-09-29T04:51:14.251Z,74.35
2016-09-29T04:52:14.256Z,74.73
2016-09-29T04:53:14.283Z,74.44
2016-09-29T04:54:14.297Z,74.16
2016-09-29T04:55:14.336Z,74.26
2016-09-29T04:56:14.336Z,74.6
2016-09-29T04:57:14.354Z,75.02
2016-09-29T04:58:14.387Z,74.93
2016-09-29T04:59:14.408Z,74.73
2016-09-29T05:00:14.426Z,74.93
2016-09-29T05:01:14.447Z,75.02
2016-09-29T05:02:14.471Z,74.83
2016-09-29T05:03:14.482Z,74.35
2016-09-29T05:04:14.514Z,74.16
2016-09-29T05:05:14.531Z,74.93
2016-09-29T05:06:14.556Z,74.93
2016-09-29T05:07:14.575Z,74.83
2016-09-29T05:08:14.589Z,75.02
2016-09-29T05:09:14.626Z,75.02
2016-09-29T05:10:14.635Z,74.64
2016-09-29T05:11:14.661Z,74.6
2016-09-29T05:12:14.670Z,74.83
2016-09-29T05:13:14.703Z,74.69
2016-09-29T05:14:14.709Z,74.54
2016-09-29T05:15:14.746Z,74.54
2016-09-29T05:16:14.760Z,74.64
2016-09-29T05:17:14.795Z,74.64
2016-09-29T05:18:14.798Z,74.35
2016-09-29T05:19:14.822Z,75.27
2016-09-29T05:20:14.851Z,75.08
2016-09-29T05:21:14.868Z,75.02
2016-09-29T05:22:14.887Z,75.18
2016-09-29T05:23:14.905Z,75.27
2016-09-29T05:24:14.930Z,74.98
2016-09-29T05:25:14.952Z,74.89
2016-09-29T05:26:14.972Z,75.18
2016-09-29T05:27:14.983Z,75.18
2016-09-29T05:28:15.014Z,75.21
2016-09-29T05:29:15.042Z,75.46
2016-09-29T05:30:15.051Z,75.18
2016-09-29T05:31:15.080Z,75.18
2016-09-29T05:32:15.089Z,75.5
2016-09-29T05:33:15.125Z,75.31
2016-09-29T05:34:15.153Z,75.08
2016-09-29T05:35:15.171Z,75.21
2016-09-29T05:36:15.175Z,75.08
2016-09-29T05:37:15.195Z,75.27
2016-09-29T05:38:15.209Z,75.27
2016-09-29T05:39:15.238Z,75.18
2016-09-29T05:40:15.259Z,74.35
2016-09-29T05:41:15.285Z,74.22
2016-09-29T05:42:15.304Z,75.4
2016-09-29T05:43:15.330Z,74.41
2016-09-29T05:44:15.346Z,74.79
2016-09-29T05:45:15.355Z,75.37
2016-09-29T05:46:15.392Z,74.41
2016-09-29T05:47:15.406Z,74.79
2016-09-29T05:48:15.434Z,74.69
2016-09-29T05:49:15.453Z,75.27
2016-09-29T05:50:15.468Z,75.08
2016-09-29T05:51:15.487Z,75.08
2016-09-29T05:52:15.516Z,75.18
2016-09-29T05:53:15.525Z,74.6
2016-09-29T05:54:15.550Z,75.27
2016-09-29T05:55:15.575Z,75.37
2016-09-29T05:56:15.592Z,75.18
2016-09-29T05:57:15.624Z,75.46
2016-09-29T05:58:15.629Z,75.12
2016-09-29T05:59:15.657Z,74.51
2016-09-29T06:00:15.679Z,74.69
2016-09-29T06:01:15.709Z,75.31
2016-09-29T06:02:15.722Z,75.37
2016-09-29T06:03:15.732Z,74.54
2016-09-29T06:04:15.750Z,74.6
2016-09-29T06:05:15.780Z,75.18
2016-09-29T06:06:15.793Z,74.69
2016-09-29T06:07:15.815Z,74.44
2016-09-29T06:08:15.863Z,74.83
2016-09-29T06:09:15.863Z,74.12
2016-09-29T06:10:15.873Z,74.89
2016-09-29T06:11:16.224Z,75.02
2016-09-29T06:12:15.911Z,74.51
2016-09-29T06:13:15.945Z,74.93
2016-09-29T06:14:15.971Z,74.64
2016-09-29T06:15:15.991Z,74.44
2016-09-29T06:16:16.006Z,74.54
2016-09-29T06:17:16.025Z,74.64
2016-09-29T06:18:16.054Z,74.26
2016-09-29T06:19:16.081Z,74.73
2016-09-29T06:20:16.098Z,74.64
2016-09-29T06:21:16.106Z,74.93
2016-09-29T06:22:16.129Z,74.26
2016-09-29T06:23:16.159Z,74.44
2016-09-29T06:24:16.181Z,74.54
2016-09-29T06:25:16.201Z,74.93
2016-09-29T06:26:16.218Z,74.73
2016-09-29T06:27:16.232Z,74.93
2016-09-29T06:28:16.266Z,74.83
2016-09-29T06:29:16.285Z,74.93
2016-09-29T06:30:16.298Z,74.44
2016-09-29T06:31:16.327Z,74.44
2016-09-29T06:32:16.351Z,74.73
2016-09-29T06:33:16.361Z,74.54
2016-09-29T06:34:16.380Z,74.26
2016-09-29T06:35:16.406Z,74.06
2016-09-29T06:36:16.431Z,74.54
2016-09-29T06:37:16.464Z,74.39
2016-09-29T06:38:16.470Z,74.19
2016-09-29T06:39:16.493Z,73.43
2016-09-29T06:40:16.513Z,73.81
2016-09-29T06:41:16.530Z,73.52
2016-09-29T06:42:16.550Z,73.33
2016-09-29T06:43:16.580Z,72.56
2016-09-29T06:44:16.590Z,72.56
2016-09-29T06:45:16.618Z,72.37
2016-09-29T06:46:16.640Z,71.83
2016-09-29T06:47:16.657Z,72.22
2016-09-29T06:48:16.689Z,71.93
2016-09-29T06:49:16.707Z,71.35
2016-09-29T06:50:16.730Z,71.64
2016-09-29T06:51:16.741Z,71.45
2016-09-29T06:52:16.767Z,70.87
2016-09-29T06:53:16.788Z,70.87
2016-09-29T06:54:16.806Z,70.78
2016-09-29T06:55:16.835Z,70.39
2016-09-29T06:56:16.854Z,70.81
2016-09-29T06:57:16.880Z,70.33
2016-09-29T06:58:16.890Z,70.33
2016-09-29T06:59:16.916Z,70.14
2016-09-29T07:00:16.939Z,69.46
2016-09-29T07:01:16.958Z,69.56
2016-09-29T07:02:16.977Z,69.56
2016-09-29T07:03:16.993Z,69.5
2016-09-29T07:04:17.027Z,69.08
2016-09-29T07:05:17.057Z,69.12
2016-09-29T07:06:17.061Z,69.02
2016-09-29T07:07:17.096Z,68.44
2016-09-29T07:08:17.110Z,68.44
2016-09-29T07:09:17.124Z,68.15
2016-09-29T07:10:17.148Z,68.25
2016-09-29T07:11:17.177Z,67.77
2016-09-29T07:12:17.196Z,67.9
2016-09-29T07:13:17.220Z,67.71
2016-09-29T07:14:17.239Z,67.51
2016-09-29T07:15:17.263Z,67.42
2016-09-29T07:16:17.288Z,67.8
2016-09-29T07:17:17.299Z,67.22
2016-09-29T07:18:17.333Z,67.9
2016-09-29T07:19:17.370Z,67.51
2016-09-29T07:20:17.378Z,67.61
2016-09-29T07:21:17.406Z,67.71
2016-09-29T07:22:17.429Z,67.71
2016-09-29T07:23:17.442Z,67.99
2016-09-29T07:24:17.459Z,68.29
2016-09-29T07:25:17.477Z,68.38
2016-09-29T07:26:17.506Z,68.38
2016-09-29T07:27:17.524Z,68.76
2016-09-29T07:28:17.554Z,68.96
2016-09-29T07:29:17.571Z,68.09
2016-09-29T07:30:17.617Z,68.67
2016-09-29T07:31:17.612Z,68.96
2016-09-29T07:32:17.636Z,69.12
2016-09-29T07:33:17.656Z,68.63
2016-09-29T07:34:17.680Z,68.73
2016-09-29T07:35:17.693Z,68.92
2016-09-29T07:36:17.727Z,68.48
2016-09-29T07:37:17.748Z,69.02
2016-09-29T07:38:17.772Z,68.76
2016-09-29T07:39:17.795Z,69.06
2016-09-29T07:40:17.811Z,68.57
2016-09-29T07:41:17.827Z,69.06
2016-09-29T07:42:17.852Z,68.67
2016-09-29T07:43:17.893Z,68.86
2016-09-29T07:44:17.889Z,69.06
2016-09-29T07:45:17.926Z,68.86
2016-09-29T07:46:17.943Z,69.73
2016-09-29T07:47:17.969Z,69.92
2016-09-29T07:48:17.989Z,69.82
2016-09-29T07:49:18.014Z,69.53
2016-09-29T07:50:18.043Z,69.63
2016-09-29T07:51:18.056Z,69.15
2016-09-29T07:52:18.068Z,69.15
2016-09-29T07:53:18.096Z,68.86
2016-09-29T07:54:18.123Z,68.48
2016-09-29T07:55:18.138Z,68.29
2016-09-29T07:56:18.170Z,67.99
2016-09-29T07:57:18.185Z,68.6
2016-09-29T07:58:18.199Z,69.06
2016-09-29T07:59:18.234Z,68.9
2016-09-29T08:00:18.262Z,69.53
2016-09-29T08:01:18.281Z,69.15
2016-09-29T08:02:18.301Z,69.24
2016-09-29T08:03:18.315Z,69.63
2016-09-29T08:04:18.337Z,68.76
2016-09-29T08:05:18.368Z,69.53
2016-09-29T08:06:18.380Z,69.53
2016-09-29T08:07:18.413Z,70.21
2016-09-29T08:08:18.421Z,69.92
2016-09-29T08:09:18.468Z,70.59
2016-09-29T08:10:18.473Z,70.21
2016-09-29T08:11:18.500Z,70.4
2016-09-29T08:12:18.510Z,70.3
2016-09-29T08:13:18.547Z,70.01
2016-09-29T08:14:18.566Z,70.24
2016-09-29T08:15:18.585Z,70.24
2016-09-29T08:16:18.604Z,69.24
2016-09-29T08:17:18.622Z,68.99
2016-09-29T08:18:18.651Z,69.18
2016-09-29T08:19:18.679Z,69.57
2016-09-29T08:20:18.691Z,68.8
2016-09-29T08:21:18.713Z,69.09
2016-09-29T08:22:18.735Z,68.35
2016-09-29T08:23:18.757Z,68.26
2016-09-29T08:24:18.787Z,68.26
2016-09-29T08:25:18.810Z,67.87
2016-09-29T08:26:18.829Z,67.68
2016-09-29T08:27:18.855Z,67.77
2016-09-29T08:28:18.871Z,67.97
2016-09-29T08:29:18.903Z,67.29
2016-09-29T08:30:18.911Z,67.19
2016-09-29T08:31:18.950Z,67.49
2016-09-29T08:32:18.957Z,67.87
2016-09-29T08:33:18.986Z,67.97
2016-09-29T08:34:18.998Z,67.39
2016-09-29T08:35:19.033Z,67.29
2016-09-29T08:36:19.039Z,67.19
2016-09-29T08:37:19.063Z,67.49
2016-09-29T08:38:19.098Z,67.1
2016-09-29T08:39:19.127Z,66.52
2016-09-29T08:40:19.145Z,66.75
2016-09-29T08:41:19.155Z,66.36
2016-09-29T08:42:19.178Z,65.98
2016-09-29T08:43:19.211Z,66.36
2016-09-29T08:44:19.236Z,66.46
2016-09-29T08:45:19.256Z,66.17
2016-09-29T08:46:19.269Z,66.36
2016-09-29T08:47:19.297Z,66.07
2016-09-29T08:48:19.321Z,66.27
2016-09-29T08:49:19.343Z,66.46
2016-09-29T08:50:19.368Z,66.33
2016-09-29T08:51:19.711Z,66.04
2016-09-29T08:52:19.419Z,66.42
2016-09-29T08:53:19.439Z,65.94
2016-09-29T08:54:19.463Z,65.85
2016-09-29T08:55:19.481Z,65.46
2016-09-29T08:56:19.504Z,65.78
2016-09-29T08:57:19.849Z,65.01
2016-09-29T08:58:19.544Z,64.98
2016-09-29T08:59:19.571Z,64.98
2016-09-29T09:00:19.581Z,64.53
2016-09-29T09:01:19.614Z,63.95
2016-09-29T09:02:19.643Z,64.15
2016-09-29T09:03:19.661Z,63.85
2016-09-29T09:04:19.692Z,63.85
2016-09-29T09:05:19.718Z,63.09
2016-09-29T09:06:19.733Z,63.12
2016-09-29T09:07:19.754Z,61.87
2016-09-29T09:08:20.093Z,61.77
2016-09-29T09:09:19.797Z,61.48
2016-09-29T09:10:19.817Z,61.19
2016-09-29T09:11:19.838Z,61.19
2016-09-29T09:12:19.867Z,61.38
2016-09-29T09:13:19.888Z,61.68
2016-09-29T09:14:19.909Z,61.77
2016-09-29T09:15:19.927Z,62.22
2016-09-29T09:16:19.958Z,61.55
2016-09-29T09:17:19.972Z,61.55
2016-09-29T09:18:20.007Z,61.96
2016-09-29T09:19:20.018Z,61.96
2016-09-29T09:20:20.045Z,61.68
2016-09-29T09:21:20.059Z,61.65
2016-09-29T09:22:20.090Z,61.87
2016-09-29T09:23:20.104Z,61.19
2016-09-29T09:24:20.132Z,61.38
2016-09-29T09:25:20.166Z,60.9
2016-09-29T09:26:20.188Z,60.52
2016-09-29T09:27:20.200Z,60.35
2016-09-29T09:28:20.230Z,60.35
2016-09-29T09:29:20.249Z,60.06
2016-09-29T09:30:20.277Z,59.68
2016-09-29T09:31:20.293Z,59.2
2016-09-29T09:32:20.315Z,59.13
2016-09-29T09:33:20.351Z,58.26
2016-09-29T09:34:20.362Z,58.55
2016-09-29T09:35:20.388Z,58.26
2016-09-29T09:36:20.398Z,57.97
2016-09-29T09:37:20.428Z,57.97
2016-09-29T09:38:20.456Z,58.36
2016-09-29T09:39:20.487Z,58.84
2016-09-29T09:40:20.498Z,59.39
2016-09-29T09:41:20.532Z,58.62
2016-09-29T09:42:20.545Z,58.75
2016-09-29T09:43:20.574Z,58.75
2016-09-29T09:44:20.581Z,58.75
2016-09-29T09:45:20.623Z,58.36
2016-09-29T09:46:20.638Z,58.84
2016-09-29T09:47:20.680Z,58.33
2016-09-29T09:48:20.676Z,58.65
2016-09-29T09:49:20.712Z,57.87
2016-09-29T09:50:20.738Z,57.59
2016-09-29T09:51:20.752Z,57.78
2016-09-29T09:52:20.781Z,57.2
2016-09-29T09:53:20.813Z,57.2
2016-09-29T09:54:20.834Z,57.2
2016-09-29T09:55:20.856Z,56.81
2016-09-29T09:56:20.879Z,56.33
2016-09-29T09:57:20.907Z,56.36
2016-09-29T09:58:20.915Z,56.74
2016-09-29T09:59:20.938Z,56.65
2016-09-29T10:00:20.955Z,56.26
2016-09-29T10:01:20.995Z,56.26
2016-09-29T10:02:21.008Z,55.98
2016-09-29T10:03:21.027Z,56.16
2016-09-29T10:04:21.053Z,55.59
2016-09-29T10:05:21.080Z,55.78
2016-09-29T10:06:21.098Z,55.13
2016-09-29T10:07:21.133Z,55.04
2016-09-29T10:08:21.149Z,55.04
2016-09-29T10:09:21.166Z,55.04
2016-09-29T10:10:21.196Z,55.23
2016-09-29T10:11:21.199Z,54.84
2016-09-29T10:12:21.240Z,54.65
2016-09-29T10:13:21.265Z,54.65
2016-09-29T10:14:21.280Z,54.65
2016-09-29T10:15:21.308Z,54.94
2016-09-29T10:16:21.332Z,55.23
2016-09-29T10:17:21.361Z,54.94
2016-09-29T10:18:21.376Z,55.04
2016-09-29T10:19:21.410Z,55.23
2016-09-29T10:20:21.430Z,55.23
2016-09-29T10:21:21.496Z,55.9
2016-09-29T10:22:21.469Z,56
2016-09-29T10:23:21.510Z,55.62
2016-09-29T10:24:21.517Z,55.62
2016-09-29T10:25:21.538Z,56
2016-09-29T10:26:21.571Z,56
2016-09-29T10:27:21.590Z,55.81
2016-09-29T10:28:21.608Z,56
2016-09-29T10:29:21.638Z,55.9
2016-09-29T10:30:21.658Z,55.71
2016-09-29T10:31:21.699Z,56
2016-09-29T10:32:21.713Z,55.62
2016-09-29T10:33:21.735Z,55.23
2016-09-29T10:34:21.755Z,54.97
2016-09-29T10:35:21.783Z,55.16
2016-09-29T10:36:21.795Z,54.39
2016-09-29T10:37:21.828Z,54.68
2016-09-29T10:38:21.846Z,54.39
2016-09-29T10:39:21.862Z,54.49
2016-09-29T10:40:21.896Z,54.49
2016-09-29T10:41:21.924Z,54.58
2016-09-29T10:42:21.945Z,54.77
2016-09-29T10:43:21.975Z,54.87
2016-09-29T10:44:21.988Z,55.26
2016-09-29T10:45:22.017Z,55.07
2016-09-29T10:46:22.037Z,54.97
2016-09-29T10:47:22.072Z,55.16
2016-09-29T10:48:22.080Z,54.97
2016-09-29T10:49:22.116Z,54.97
2016-09-29T10:50:22.137Z,55.04
2016-09-29T10:51:22.176Z,55.13
2016-09-29T10:52:22.185Z,55.16
2016-09-29T10:53:22.208Z,54.87
2016-09-29T10:54:22.221Z,55.07
2016-09-29T10:55:22.257Z,54.97
2016-09-29T10:56:22.280Z,55.16
2016-09-29T10:57:22.309Z,55.04
2016-09-29T10:58:22.322Z,54.84
2016-09-29T10:59:22.356Z,55.16
2016-09-29T11:00:22.374Z,54.77
2016-09-29T11:01:22.400Z,54.39
2016-09-29T11:02:22.422Z,54.68
2016-09-29T11:03:22.447Z,53.91
2016-09-29T11:04:22.460Z,53.91
2016-09-29T11:05:22.487Z,54
2016-09-29T11:06:22.521Z,54.03
2016-09-29T11:07:22.540Z,53.81
2016-09-29T11:08:22.554Z,54.03
2016-09-29T11:09:22.592Z,53.71
2016-09-29T11:10:22.613Z,54.22
2016-09-29T11:11:22.632Z,53.64
2016-09-29T11:12:22.647Z,53.74
2016-09-29T11:13:22.693Z,53.06
2016-09-29T11:14:22.717Z,52.77
2016-09-29T11:15:22.722Z,52.77
2016-09-29T11:16:22.751Z,52.29
2016-09-29T11:17:22.781Z,51.73
2016-09-29T11:18:22.812Z,51.93
2016-09-29T11:19:22.830Z,51.64
2016-09-29T11:20:22.852Z,51.73
2016-09-29T11:21:22.877Z,51.64
2016-09-29T11:22:22.900Z,51.73
2016-09-29T11:23:22.922Z,51.64
2016-09-29T11:24:22.940Z,50.48
2016-09-29T11:25:22.978Z,50.09
2016-09-29T11:26:22.992Z,50.09
2016-09-29T11:27:23.021Z,49.99
2016-09-29T11:28:23.042Z,50.09
2016-09-29T11:29:23.079Z,49.99
2016-09-29T11:30:23.086Z,50.67
2016-09-29T11:31:23.116Z,50.38
2016-09-29T11:32:23.140Z,50.09
2016-09-29T11:33:23.166Z,50.21
2016-09-29T11:34:23.189Z,49.54
2016-09-29T11:35:23.543Z,49.92
2016-09-29T11:36:23.224Z,49.54
2016-09-29T11:37:23.269Z,48.76
2016-09-29T11:38:23.283Z,48.3
2016-09-29T11:39:23.315Z,48.2
2016-09-29T11:40:23.334Z,48.57
2016-09-29T11:41:23.367Z,48.3
2016-09-29T11:42:23.393Z,48.39
2016-09-29T11:43:23.393Z,48.3
2016-09-29T11:44:23.425Z,48.2
2016-09-29T11:45:23.453Z,47.72
2016-09-29T11:46:23.470Z,47.62
2016-09-29T11:47:23.497Z,47.14
2016-09-29T11:48:23.528Z,47.33
2016-09-29T11:49:23.549Z,47.52
2016-09-29T11:50:23.577Z,47.14
2016-09-29T11:51:23.603Z,46.36
2016-09-29T11:52:23.624Z,47.14
2016-09-29T11:53:23.648Z,46.67
2016-09-29T11:54:23.674Z,46.48
2016-09-29T11:55:23.748Z,46.77
2016-09-29T11:56:23.720Z,46.58
2016-09-29T11:57:23.751Z,46.29
2016-09-29T11:58:23.762Z,46.77
2016-09-29T11:59:23.788Z,46.58
2016-09-29T12:00:23.812Z,46.51
2016-09-29T12:01:23.843Z,46.09
2016-09-29T12:02:23.867Z,45.54
2016-09-29T12:03:23.899Z,45.64
2016-09-29T12:04:23.917Z,45.44
2016-09-29T12:05:23.942Z,45.44
2016-09-29T12:06:23.970Z,45.54
2016-09-29T12:07:23.983Z,46.02
2016-09-29T12:08:24.020Z,46.31
2016-09-29T12:09:24.041Z,45.9
2016-09-29T12:10:24.058Z,46.09
2016-09-29T12:11:24.094Z,45.78
2016-09-29T12:12:24.117Z,45.98
2016-09-29T12:13:24.149Z,45.88
2016-09-29T12:14:24.166Z,45.59
2016-09-29T12:15:24.192Z,44.93
2016-09-29T12:16:24.218Z,43.87
2016-09-29T12:17:24.239Z,43.48
2016-09-29T12:18:24.256Z,42.61
2016-09-29T12:19:24.295Z,42.92
2016-09-29T12:20:24.361Z,43.12
2016-09-29T12:21:24.345Z,42.82
2016-09-29T12:22:24.368Z,43.21
2016-09-29T12:23:24.394Z,42.82
2016-09-29T12:24:24.417Z,43.04
2016-09-29T12:25:24.758Z,42.92
2016-09-29T12:26:24.457Z,43.79
2016-09-29T12:27:24.830Z,43.6
2016-09-29T12:28:24.516Z,44.86
2016-09-29T12:29:24.539Z,44.86
2016-09-29T12:30:24.553Z,44.68
2016-09-29T12:31:24.586Z,44.86
2016-09-29T12:32:24.614Z,44.59
2016-09-29T12:33:24.644Z,44.1
2016-09-29T12:34:24.665Z,43.52
2016-09-29T12:35:24.683Z,43.72
2016-09-29T12:36:24.702Z,43.72
2016-09-29T12:37:24.730Z,43.54
2016-09-29T12:38:24.765Z,43.45
2016-09-29T12:39:24.794Z,43.54
2016-09-29T12:40:24.815Z,43.45
2016-09-29T12:41:24.847Z,43.26
2016-09-29T12:42:24.858Z,42.29
2016-09-29T12:43:24.885Z,42.29
2016-09-29T12:44:24.906Z,42.19
2016-09-29T12:45:24.948Z,42.29
2016-09-29T12:46:24.963Z,42.94
2016-09-29T12:47:24.992Z,42.65
2016-09-29T12:48:25.009Z,43.62
2016-09-29T12:49:25.035Z,43.04
2016-09-29T12:50:25.069Z,43.13
2016-09-29T12:51:25.086Z,42.26
2016-09-29T12:52:25.107Z,43.13
2016-09-29T12:53:25.144Z,43.12
2016-09-29T12:54:25.168Z,43.5
2016-09-29T12:55:25.198Z,43.31